Time;durP1;ratioP1;P1;durP2;ratioP2;P2;SDS_P1;SDS_P2;PMS_P1;PMS_P2;Temp;Humidity;BMP_temperature;BMP_pressure;BME280_temperature;BME280_humidity;BME280_pressure;Samples;Min_cycle;Max_cycle;Signal;HPM_P1;HPM_P2
2023/01/12 00:01:23;;;;;;;0.60;0.60;;;5.60;99.90;;;;;;5112300;27;20213;-68
2023/01/12 00:03:50;;;;;;;10.75;1.83;;;5.60;99.90;;;;;;5118523;27;20267;-67
2023/01/12 00:06:18;;;;;;;0.30;0.20;;;5.50;99.90;;;;;;5114929;27;20221;-69
2023/01/12 00:08:45;;;;;;;1.17;1.08;;;5.50;99.90;;;;;;5129189;27;20190;-69
2023/01/12 00:11:12;;;;;;;0.40;0.40;;;5.40;99.90;;;;;;5123692;27;20224;-69
2023/01/12 00:13:39;;;;;;;0.40;0.40;;;5.40;99.90;;;;;;5129359;27;20203;-69
2023/01/12 00:18:52;;;;;;;0.68;0.68;;;5.30;99.90;;;;;;5114778;27;20552;-69
2023/01/12 00:21:19;;;;;;;0.43;0.43;;;5.40;99.90;;;;;;5129033;27;20305;-69
2023/01/12 00:23:46;;;;;;;0.63;0.63;;;5.30;99.90;;;;;;5129046;27;20284;-69
2023/01/12 00:26:12;;;;;;;0.60;0.47;;;5.30;99.90;;;;;;5128818;27;20686;-69
2023/01/12 00:28:39;;;;;;;0.30;0.20;;;5.20;99.90;;;;;;5127618;27;20526;-69
2023/01/12 00:31:08;;;;;;;0.30;0.30;;;5.30;99.90;;;;;;5128776;27;20213;-69
2023/01/12 00:33:35;;;;;;;0.57;0.45;;;5.30;99.90;;;;;;5128611;27;20189;-68
2023/01/12 00:36:05;;;;;;;0.30;0.20;;;5.30;99.90;;;;;;5129084;27;20213;-67
2023/01/12 00:38:35;;;;;;;0.98;0.50;;;5.40;99.90;;;;;;5127930;27;20204;-68
2023/01/12 00:41:05;;;;;;;0.93;0.57;;;5.50;99.90;;;;;;5127776;27;20274;-69
2023/01/12 00:46:16;;;;;;;2.47;0.50;;;5.50;99.90;;;;;;5128431;27;20683;-69
2023/01/12 00:48:43;;;;;;;0.40;0.40;;;5.50;99.90;;;;;;5129170;27;20193;-69
2023/01/12 00:51:11;;;;;;;0.40;0.20;;;5.70;99.90;;;;;;5128363;27;20232;-69
2023/01/12 00:53:38;;;;;;;0.30;0.30;;;5.90;99.90;;;;;;5128225;27;20204;-68
2023/01/12 00:56:06;;;;;;;0.30;0.20;;;5.70;99.90;;;;;;5127136;27;20225;-69
2023/01/12 00:58:32;;;;;;;0.30;0.20;;;5.80;99.90;;;;;;5128401;27;20197;-69
2023/01/12 01:01:05;;;;;;;0.50;0.50;;;5.80;99.90;;;;;;5128374;27;20229;-68
2023/01/12 01:03:32;;;;;;;0.30;0.20;;;5.90;99.90;;;;;;5128131;27;20847;-69
2023/01/12 01:06:02;;;;;;;0.30;0.20;;;5.90;99.90;;;;;;5128280;27;20223;-68
2023/01/12 01:08:31;;;;;;;0.40;0.40;;;5.90;99.90;;;;;;5127687;27;20755;-68
2023/01/12 01:11:08;;;;;;;0.30;0.20;;;6.00;99.90;;;;;;5128117;27;20225;-69
2023/01/12 01:13:36;;;;;;;0.40;0.40;;;6.00;99.90;;;;;;5115661;27;20196;-68
2023/01/12 01:16:04;;;;;;;2.15;0.65;;;6.00;99.90;;;;;;5128032;27;20217;-68
2023/01/12 01:18:32;;;;;;;0.57;0.57;;;6.00;99.90;;;;;;5126843;27;20208;-68
2023/01/12 01:20:59;;;;;;;0.75;0.63;;;6.10;99.90;;;;;;5127946;27;20240;-69
2023/01/12 01:23:26;;;;;;;0.40;0.30;;;6.20;99.90;;;;;;5127776;27;20208;-68
2023/01/12 01:25:55;;;;;;;0.75;0.38;;;6.20;99.90;;;;;;5128115;27;20229;-69
2023/01/12 01:28:22;;;;;;;0.70;0.70;;;6.20;99.90;;;;;;5127571;27;20228;-69
2023/01/12 01:30:49;;;;;;;0.30;0.30;;;6.20;99.90;;;;;;5127612;27;20252;-69
2023/01/12 01:33:16;;;;;;;0.30;0.30;;;6.10;99.90;;;;;;5127459;27;20193;-69
2023/01/12 01:35:42;;;;;;;0.68;0.68;;;6.10;99.90;;;;;;5128171;27;20228;-67
2023/01/12 01:38:09;;;;;;;0.30;0.20;;;6.10;99.90;;;;;;5111183;28;20214;-69
2023/01/12 01:40:42;;;;;;;0.40;0.40;;;6.20;99.90;;;;;;5125880;27;20335;-69
2023/01/12 01:43:14;;;;;;;0.38;0.30;;;6.20;99.90;;;;;;5107751;28;20228;-69
2023/01/12 01:45:42;;;;;;;0.30;0.20;;;6.60;99.90;;;;;;5107052;28;20251;-68
2023/01/12 01:48:11;;;;;;;4.13;0.50;;;6.20;99.90;;;;;;5120249;28;20217;-69
2023/01/12 01:50:40;;;;;;;0.70;0.52;;;6.20;99.90;;;;;;5127241;28;20244;-69
2023/01/12 01:53:13;;;;;;;2.97;0.40;;;6.20;99.90;;;;;;5127858;28;20208;-69
2023/01/12 01:55:47;;;;;;;2.25;0.73;;;6.30;99.90;;;;;;5126811;28;20217;-68
2023/01/12 01:58:19;;;;;;;0.77;0.32;;;6.40;99.90;;;;;;5127373;28;20537;-69
2023/01/12 02:00:46;;;;;;;0.30;0.20;;;5.80;99.90;;;;;;5127453;28;20792;-69
2023/01/12 02:03:15;;;;;;;0.50;0.20;;;6.30;99.90;;;;;;5127228;28;20191;-69
2023/01/12 02:05:45;;;;;;;0.30;0.20;;;6.40;99.90;;;;;;5125956;28;20220;-69
2023/01/12 02:08:21;;;;;;;0.30;0.20;;;6.40;99.90;;;;;;5126790;28;20235;-69
2023/01/12 02:10:49;;;;;;;0.30;0.30;;;6.40;99.90;;;;;;5127619;28;20232;-69
2023/01/12 02:16:24;;;;;;;0.40;0.38;;;6.40;99.90;;;;;;5127604;28;20217;-69
2023/01/12 02:19:11;;;;;;;0.30;0.30;;;6.50;99.90;;;;;;5126764;28;20284;-69
2023/01/12 02:22:27;;;;;;;2.15;0.60;;;6.40;99.90;;;;;;5118319;28;20316;-69
2023/01/12 02:25:19;;;;;;;0.40;0.30;;;6.50;99.90;;;;;;5127483;28;20208;-69
2023/01/12 02:28:13;;;;;;;0.75;0.70;;;6.40;99.90;;;;;;5127466;28;20323;-67
2023/01/12 02:31:16;;;;;;;0.30;0.20;;;6.50;99.90;;;;;;5127149;28;20217;-69
2023/01/12 02:33:54;;;;;;;0.43;0.40;;;6.40;99.90;;;;;;5127041;28;20203;-69
2023/01/12 02:36:30;;;;;;;0.30;0.20;;;6.40;99.90;;;;;;5126766;28;20270;-68
2023/01/12 02:39:03;;;;;;;0.90;0.50;;;6.40;99.90;;;;;;5120289;28;20217;-69
2023/01/12 02:44:29;;;;;;;1.50;0.52;;;6.40;99.90;;;;;;5127182;28;20280;-69
2023/01/12 02:47:00;;;;;;;0.45;0.43;;;6.40;99.90;;;;;;5127002;28;20231;-68
2023/01/12 02:49:31;;;;;;;0.50;0.30;;;6.40;99.90;;;;;;5127060;28;20571;-69
2023/01/12 02:52:03;;;;;;;1.30;0.88;;;6.40;99.90;;;;;;5114670;27;20221;-69
2023/01/12 02:54:34;;;;;;;0.30;0.25;;;6.40;99.90;;;;;;5110712;28;20228;-69
2023/01/12 02:57:06;;;;;;;0.40;0.40;;;6.30;99.90;;;;;;5110382;28;20229;-68
2023/01/12 02:59:40;;;;;;;0.40;0.40;;;6.30;99.90;;;;;;5110097;27;20280;-68
2023/01/12 03:02:12;;;;;;;0.70;0.60;;;6.30;99.90;;;;;;5111572;27;20229;-68
2023/01/12 03:04:40;;;;;;;0.30;0.20;;;6.30;99.90;;;;;;5109669;27;20198;-69
2023/01/12 03:07:35;;;;;;;0.40;0.30;;;6.30;99.90;;;;;;5110479;28;20265;-68
2023/01/12 03:10:17;;;;;;;0.30;0.20;;;6.30;99.90;;;;;;5118001;27;20252;-70
2023/01/12 03:12:45;;;;;;;0.30;0.20;;;6.30;99.90;;;;;;5116055;27;20197;-69
2023/01/12 03:15:15;;;;;;;0.47;0.47;;;6.90;99.90;;;;;;5129812;27;20197;-70
2023/01/12 03:17:49;;;;;;;0.57;0.50;;;6.30;99.90;;;;;;5130707;27;20246;-69
2023/01/12 03:20:23;;;;;;;0.80;0.50;;;6.30;99.90;;;;;;5129457;27;20258;-69
2023/01/12 03:22:54;;;;;;;0.40;0.40;;;6.20;99.90;;;;;;5130540;27;20296;-69
2023/01/12 03:25:25;;;;;;;0.43;0.43;;;6.30;99.90;;;;;;5129441;27;20821;-70
2023/01/12 03:27:56;;;;;;;0.55;0.55;;;6.20;99.90;;;;;;5130231;27;20328;-68
2023/01/12 03:30:30;;;;;;;0.30;0.20;;;6.20;99.90;;;;;;5129365;27;20885;-68
2023/01/12 03:32:59;;;;;;;0.30;0.20;;;6.20;99.90;;;;;;5130012;27;20190;-69
2023/01/12 03:35:28;;;;;;;8.65;1.27;;;6.10;99.90;;;;;;5129300;27;20217;-69
2023/01/12 03:37:58;;;;;;;0.40;0.30;;;6.10;99.90;;;;;;5097101;28;20251;-68
2023/01/12 03:40:29;;;;;;;0.65;0.65;;;6.20;99.90;;;;;;5125482;27;20240;-68
2023/01/12 03:43:04;;;;;;;0.40;0.32;;;6.20;99.90;;;;;;5111853;27;20205;-69
2023/01/12 03:45:35;;;;;;;1.05;0.68;;;6.20;99.90;;;;;;5109505;28;20259;-68
2023/01/12 03:48:10;;;;;;;0.30;0.28;;;6.20;99.90;;;;;;5109414;28;20267;-69
2023/01/12 03:50:43;;;;;;;0.40;0.30;;;6.40;99.90;;;;;;5111724;27;20313;-69
2023/01/12 03:53:12;;;;;;;0.55;0.55;;;6.30;99.90;;;;;;5129610;27;20233;-69
2023/01/12 03:55:42;;;;;;;0.70;0.57;;;6.30;99.90;;;;;;5121153;27;20267;-68
2023/01/12 03:58:10;;;;;;;0.30;0.20;;;6.30;99.90;;;;;;5109379;28;20213;-69
2023/01/12 04:00:38;;;;;;;0.52;0.52;;;6.30;99.90;;;;;;5123817;27;20348;-68
2023/01/12 04:03:12;;;;;;;0.30;0.30;;;6.30;99.90;;;;;;5129121;27;20600;-69
2023/01/12 04:05:41;;;;;;;0.43;0.38;;;6.30;99.90;;;;;;5121479;27;20306;-69
2023/01/12 04:08:09;;;;;;;0.30;0.22;;;6.30;99.90;;;;;;5109230;27;20218;-69
2023/01/12 04:10:35;;;;;;;0.40;0.30;;;6.40;99.90;;;;;;5127778;27;20224;-68
2023/01/12 04:13:02;;;;;;;0.50;0.50;;;6.50;99.90;;;;;;5129734;27;20372;-69
2023/01/12 04:15:29;;;;;;;0.30;0.20;;;6.40;99.90;;;;;;5126036;27;20274;-69
2023/01/12 04:17:56;;;;;;;0.43;0.35;;;6.40;99.90;;;;;;5109225;28;20277;-68
2023/01/12 04:20:24;;;;;;;0.30;0.30;;;6.50;99.90;;;;;;5125242;27;20372;-68
2023/01/12 04:22:50;;;;;;;1.05;0.68;;;6.40;99.90;;;;;;5109124;28;20212;-69
2023/01/12 04:25:20;;;;;;;0.30;0.30;;;6.60;99.90;;;;;;5125017;27;20562;-69
2023/01/12 04:27:48;;;;;;;1.15;0.30;;;6.50;99.90;;;;;;5129353;27;20657;-69
2023/01/12 04:30:16;;;;;;;0.30;0.20;;;6.50;99.90;;;;;;5112315;27;20551;-68
2023/01/12 04:32:45;;;;;;;8.00;1.15;;;6.50;99.90;;;;;;5128620;27;20742;-69
2023/01/12 04:35:12;;;;;;;0.30;0.20;;;6.50;99.90;;;;;;5128520;27;20201;-69
2023/01/12 04:37:41;;;;;;;0.73;0.73;;;6.60;99.90;;;;;;5116336;27;20289;-69
2023/01/12 04:40:10;;;;;;;0.40;0.40;;;6.60;99.90;;;;;;5123504;27;20280;-69
2023/01/12 04:45:22;;;;;;;0.30;0.20;;;6.60;99.90;;;;;;5108247;27;20902;-67
2023/01/12 04:47:48;;;;;;;0.63;0.50;;;6.60;99.90;;;;;;5107956;27;20235;-68
2023/01/12 04:50:15;;;;;;;4.75;0.60;;;6.60;99.90;;;;;;5107907;28;20190;-69
2023/01/12 04:52:44;;;;;;;0.68;0.50;;;6.50;99.90;;;;;;5127743;27;20200;-68
2023/01/12 04:55:11;;;;;;;0.73;0.73;;;6.50;99.90;;;;;;5127879;27;20193;-69
2023/01/12 04:57:37;;;;;;;0.43;0.32;;;6.60;99.90;;;;;;5128433;27;20198;-69
2023/01/12 05:00:05;;;;;;;0.80;0.63;;;6.60;99.90;;;;;;5128196;27;20193;-70
2023/01/12 05:02:32;;;;;;;1.73;0.40;;;6.60;99.90;;;;;;5128507;27;20197;-68
2023/01/12 05:04:59;;;;;;;0.30;0.30;;;6.70;99.90;;;;;;5128335;27;20196;-69
2023/01/12 05:07:26;;;;;;;0.40;0.32;;;6.70;99.90;;;;;;5127798;27;20224;-67
2023/01/12 05:12:38;;;;;;;0.30;0.30;;;6.70;99.90;;;;;;5128075;27;20530;-69
2023/01/12 05:15:06;;;;;;;2.80;0.95;;;6.70;99.90;;;;;;5127105;27;20666;-68
2023/01/12 05:17:33;;;;;;;0.50;0.50;;;6.70;99.90;;;;;;5128684;27;20657;-69
2023/01/12 05:20:00;;;;;;;0.35;0.28;;;6.80;99.90;;;;;;5127394;27;20304;-69
2023/01/12 05:22:27;;;;;;;6.43;1.10;;;6.70;99.90;;;;;;5125263;27;20224;-69
2023/01/12 05:24:55;;;;;;;0.75;0.75;;;6.80;99.90;;;;;;5128013;27;20203;-69
2023/01/12 05:27:22;;;;;;;0.30;0.20;;;6.70;99.90;;;;;;5116924;27;20303;-69
2023/01/12 05:29:49;;;;;;;0.38;0.35;;;6.80;99.90;;;;;;5108689;28;20232;-68
2023/01/12 05:32:16;;;;;;;0.50;0.40;;;6.80;99.90;;;;;;5121596;27;20225;-68
2023/01/12 05:34:42;;;;;;;0.30;0.20;;;6.80;99.90;;;;;;5114643;27;20206;-68
2023/01/12 05:37:09;;;;;;;0.43;0.43;;;6.90;99.90;;;;;;5115996;27;20230;-68
2023/01/12 05:39:36;;;;;;;0.40;0.40;;;6.90;99.90;;;;;;5119726;28;20700;-69
2023/01/12 05:44:48;;;;;;;0.60;0.30;;;6.80;99.90;;;;;;5128144;28;20766;-69
2023/01/12 05:47:15;;;;;;;0.40;0.30;;;7.40;99.90;;;;;;5127374;28;20685;-69
2023/01/12 05:49:42;;;;;;;0.50;0.38;;;6.90;99.90;;;;;;5127845;28;20228;-69
2023/01/12 05:52:09;;;;;;;0.30;0.25;;;6.90;99.90;;;;;;5127580;28;20593;-69
2023/01/12 05:54:35;;;;;;;0.55;0.55;;;6.90;99.90;;;;;;5127368;28;20205;-68
2023/01/12 05:57:03;;;;;;;0.30;0.20;;;7.00;99.90;;;;;;5127218;28;20225;-68
2023/01/12 05:59:30;;;;;;;0.30;0.10;;;7.00;99.90;;;;;;5127260;28;20201;-69
2023/01/12 06:01:57;;;;;;;0.40;0.30;;;6.90;99.90;;;;;;5119420;28;20217;-69
2023/01/12 06:04:24;;;;;;;0.30;0.20;;;6.90;99.90;;;;;;5122794;28;20197;-69
2023/01/12 06:06:52;;;;;;;0.40;0.30;;;6.90;99.90;;;;;;5126155;28;20229;-69
2023/01/12 06:09:18;;;;;;;0.55;0.45;;;6.40;99.90;;;;;;5125998;28;20229;-69
2023/01/12 06:14:31;;;;;;;0.40;0.30;;;6.90;99.90;;;;;;5126016;28;20635;-68
2023/01/12 06:16:58;;;;;;;1.48;0.43;;;6.90;99.90;;;;;;5127720;28;20240;-69
2023/01/12 06:19:26;;;;;;;0.50;0.30;;;6.90;99.90;;;;;;5117759;28;20224;-71
2023/01/12 06:21:54;;;;;;;0.30;0.30;;;6.90;99.90;;;;;;5116890;28;20739;-69
2023/01/12 06:24:21;;;;;;;1.40;0.65;;;6.90;99.90;;;;;;5121474;28;20262;-68
2023/01/12 06:26:47;;;;;;;0.35;0.30;;;6.80;99.90;;;;;;5126580;27;20228;-69
2023/01/12 06:29:14;;;;;;;0.30;0.20;;;6.90;99.90;;;;;;5131510;27;20228;-69
2023/01/12 06:31:42;;;;;;;0.30;0.20;;;6.80;99.90;;;;;;5130046;27;20258;-69
2023/01/12 06:34:10;;;;;;;6.63;0.68;;;6.80;99.90;;;;;;5115688;27;20285;-69
2023/01/12 06:36:38;;;;;;;12.55;0.98;;;6.80;99.90;;;;;;5118954;27;20216;-67
2023/01/12 06:39:06;;;;;;;0.30;0.20;;;6.90;99.90;;;;;;5118967;27;20214;-70
2023/01/12 06:44:19;;;;;;;0.52;0.40;;;6.80;99.90;;;;;;5116673;27;20198;-69
2023/01/12 06:46:47;;;;;;;0.40;0.30;;;6.90;99.90;;;;;;5113067;27;20937;-69
2023/01/12 06:49:15;;;;;;;1.35;1.15;;;6.80;99.90;;;;;;5111852;27;20662;-71
2023/01/12 06:51:42;;;;;;;0.30;0.22;;;6.80;99.90;;;;;;5116030;27;20241;-70
2023/01/12 06:54:09;;;;;;;0.30;0.28;;;6.80;99.90;;;;;;5108980;28;20216;-70
2023/01/12 06:56:36;;;;;;;0.40;0.38;;;6.80;99.90;;;;;;5109635;28;20225;-67
2023/01/12 06:59:05;;;;;;;0.30;0.22;;;6.90;99.90;;;;;;5107040;28;20193;-70
2023/01/12 07:01:32;;;;;;;0.50;0.40;;;6.90;99.90;;;;;;5125979;27;20231;-69
2023/01/12 07:04:00;;;;;;;1.88;0.93;;;6.90;99.90;;;;;;5129925;27;20208;-69
2023/01/12 07:06:27;;;;;;;0.52;0.52;;;6.90;99.90;;;;;;5129783;27;20225;-69
2023/01/12 07:08:54;;;;;;;0.45;0.25;;;6.90;99.90;;;;;;5129952;27;20231;-69
2023/01/12 07:11:21;;;;;;;0.30;0.30;;;6.90;99.90;;;;;;5130660;27;20265;-70
2023/01/12 07:13:47;;;;;;;0.30;0.20;;;6.90;99.90;;;;;;5130698;27;20193;-69
2023/01/12 07:16:14;;;;;;;0.95;0.38;;;7.00;99.90;;;;;;5130441;27;20229;-69
2023/01/12 07:18:41;;;;;;;0.30;0.20;;;7.00;99.90;;;;;;5129342;27;20205;-70
2023/01/12 07:21:12;;;;;;;0.30;0.20;;;7.10;99.90;;;;;;5129374;27;20235;-69
2023/01/12 07:23:40;;;;;;;0.50;0.35;;;7.20;99.90;;;;;;5130872;27;20232;-69
2023/01/12 07:26:08;;;;;;;0.40;0.25;;;7.20;99.90;;;;;;5117731;27;20251;-70
2023/01/12 07:28:34;;;;;;;0.30;0.20;;;7.20;99.90;;;;;;5108990;28;20216;-69
2023/01/12 07:31:01;;;;;;;0.47;0.32;;;7.20;99.90;;;;;;5109767;28;20230;-68
2023/01/12 07:33:28;;;;;;;2.88;1.30;;;7.10;99.90;;;;;;5109367;28;20243;-70
2023/01/12 07:35:58;;;;;;;1.27;0.50;;;7.20;99.90;;;;;;5108954;28;20743;-69
2023/01/12 07:38:27;;;;;;;0.93;0.70;;;7.20;99.90;;;;;;5107272;28;20259;-70
2023/01/12 07:40:54;;;;;;;0.30;0.20;;;7.20;99.90;;;;;;5109537;28;20602;-68
2023/01/12 07:43:20;;;;;;;1.10;0.77;;;7.20;99.90;;;;;;5109421;28;20731;-69
2023/01/12 07:45:47;;;;;;;4.40;1.25;;;7.20;99.90;;;;;;5109149;28;20229;-70
2023/01/12 07:48:15;;;;;;;0.30;0.20;;;7.20;99.90;;;;;;5108180;28;20244;-70
2023/01/12 07:50:42;;;;;;;0.80;0.40;;;7.20;99.90;;;;;;5108656;28;20237;-70
2023/01/12 07:53:09;;;;;;;0.45;0.30;;;7.20;99.90;;;;;;5109385;28;20566;-69
2023/01/12 07:55:38;;;;;;;0.30;0.30;;;7.30;99.90;;;;;;5109231;28;20221;-70
2023/01/12 07:58:07;;;;;;;0.68;0.68;;;7.30;99.90;;;;;;5108591;28;20224;-71
2023/01/12 08:00:35;;;;;;;0.40;0.25;;;7.10;99.90;;;;;;5106930;28;20245;-69
2023/01/12 08:03:06;;;;;;;1.27;0.80;;;6.90;99.90;;;;;;5117906;27;20197;-68
2023/01/12 08:05:34;;;;;;;0.30;0.20;;;7.30;99.90;;;;;;5110125;27;20213;-69
2023/01/12 08:08:01;;;;;;;0.68;0.35;;;7.40;99.90;;;;;;5127971;27;20203;-70
2023/01/12 08:10:28;;;;;;;0.40;0.40;;;7.30;99.90;;;;;;5122908;27;20226;-70
2023/01/12 08:12:56;;;;;;;0.77;0.65;;;7.30;99.90;;;;;;5123715;27;20276;-70
2023/01/12 08:15:24;;;;;;;3.50;0.80;;;7.20;99.90;;;;;;5111876;27;22217;-70
2023/01/12 08:17:54;;;;;;;0.30;0.20;;;7.30;99.90;;;;;;5128758;27;20641;-70
2023/01/12 08:20:25;;;;;;;1.17;0.88;;;7.30;99.90;;;;;;5127431;27;20189;-71
2023/01/12 08:22:56;;;;;;;0.67;0.60;;;7.30;99.90;;;;;;5126414;27;20664;-70
2023/01/12 08:25:26;;;;;;;4.00;0.83;;;7.30;99.90;;;;;;5126100;27;20619;-70
2023/01/12 08:27:59;;;;;;;0.70;0.63;;;7.30;99.90;;;;;;5127517;27;20627;-69
2023/01/12 08:30:26;;;;;;;0.30;0.20;;;7.30;99.90;;;;;;5127349;27;20232;-70
2023/01/12 08:32:57;;;;;;;2.78;0.60;;;7.40;99.90;;;;;;5119870;27;20198;-69
2023/01/12 08:35:26;;;;;;;0.30;0.28;;;7.30;99.90;;;;;;5126797;27;20221;-70
2023/01/12 08:37:54;;;;;;;0.30;0.28;;;7.50;99.90;;;;;;5112491;27;20296;-69
2023/01/12 08:40:21;;;;;;;0.30;0.20;;;7.50;99.70;;;;;;5124405;27;20199;-70
2023/01/12 08:42:49;;;;;;;0.30;0.20;;;7.50;99.70;;;;;;5111576;27;20232;-70
2023/01/12 08:45:19;;;;;;;1.40;1.00;;;7.60;99.90;;;;;;5128025;27;20197;-70
2023/01/12 08:47:47;;;;;;;0.30;0.17;;;7.40;99.90;;;;;;5127315;27;20246;-69
2023/01/12 08:50:14;;;;;;;0.50;0.22;;;7.50;99.80;;;;;;5118001;27;20670;-70
2023/01/12 08:52:41;;;;;;;0.30;0.20;;;7.50;99.90;;;;;;5110706;27;20201;-70
2023/01/12 08:55:10;;;;;;;0.30;0.20;;;7.40;99.60;;;;;;5117471;27;21007;-68
2023/01/12 08:57:37;;;;;;;0.40;0.30;;;7.60;99.90;;;;;;5128359;27;20202;-69
2023/01/12 09:00:05;;;;;;;0.50;0.45;;;7.40;99.90;;;;;;5126278;27;20687;-70
2023/01/12 09:02:33;;;;;;;0.40;0.40;;;7.50;99.80;;;;;;5128223;27;20205;-69
2023/01/12 09:05:00;;;;;;;2.47;1.20;;;7.50;99.90;;;;;;5127505;27;20631;-71
2023/01/12 09:07:26;;;;;;;0.30;0.23;;;7.60;99.80;;;;;;5126134;27;20642;-70
2023/01/12 09:09:53;;;;;;;0.30;0.30;;;7.60;99.90;;;;;;5120253;27;20662;-69
2023/01/12 09:12:20;;;;;;;0.30;0.20;;;7.50;99.90;;;;;;5117926;27;20308;-70
2023/01/12 09:14:47;;;;;;;3.40;0.30;;;7.60;99.80;;;;;;5128242;27;20623;-70
2023/01/12 09:17:13;;;;;;;0.30;0.20;;;8.20;99.90;;;;;;5110963;27;21462;-67
2023/01/12 09:19:43;;;;;;;0.50;0.40;;;7.70;99.90;;;;;;5124231;27;20204;-69
2023/01/12 09:22:11;;;;;;;1.23;0.67;;;7.60;99.90;;;;;;5127283;27;21000;-70
2023/01/12 09:24:37;;;;;;;0.50;0.50;;;7.60;99.90;;;;;;5127661;27;20665;-69
2023/01/12 09:27:04;;;;;;;0.30;0.20;;;7.60;99.90;;;;;;5126210;27;21296;-70
2023/01/12 09:29:31;;;;;;;1.20;0.60;;;7.60;99.90;;;;;;5106454;28;20241;-69
2023/01/12 09:31:58;;;;;;;3.35;0.98;;;7.70;99.90;;;;;;5118631;27;20647;-70
2023/01/12 09:34:25;;;;;;;0.45;0.45;;;7.70;99.90;;;;;;5126864;27;20197;-70
2023/01/12 09:36:55;;;;;;;0.40;0.23;;;7.70;99.90;;;;;;5123995;27;20236;-69
2023/01/12 09:39:22;;;;;;;3.23;0.60;;;;;;;;;;5115850;27;20626;-68
2023/01/12 09:47:29;;;;;;;0.57;0.27;;;7.80;99.90;;;;;;5108217;28;20651;-68
2023/01/12 09:50:01;;;;;;;0.30;0.20;;;7.90;99.90;;;;;;5106254;28;21136;-69
2023/01/12 09:52:31;;;;;;;0.40;0.30;;;7.90;99.90;;;;;;5112682;28;20625;-69
2023/01/12 09:54:58;;;;;;;0.30;0.20;;;7.90;99.90;;;;;;5125823;28;20695;-70
2023/01/12 09:57:55;;;;;;;0.40;0.20;;;8.00;99.90;;;;;;5126139;28;20998;-70
2023/01/12 10:00:22;;;;;;;1.90;0.90;;;8.10;99.90;;;;;;5120169;27;20623;-69
2023/01/12 10:02:53;;;;;;;1.00;0.77;;;8.10;99.90;;;;;;5131314;27;20637;-70
2023/01/12 10:05:33;;;;;;;0.40;0.37;;;7.90;99.90;;;;;;5131734;27;20627;-69
2023/01/12 10:08:03;;;;;;;0.30;0.20;;;8.10;99.90;;;;;;5123772;27;20630;-70
2023/01/12 10:10:30;;;;;;;0.50;0.37;;;8.20;99.90;;;;;;5110450;27;20675;-70
2023/01/12 10:13:04;;;;;;;11.60;0.90;;;8.20;99.70;;;;;;5112474;27;20624;-69
2023/01/12 10:15:40;;;;;;;0.53;0.33;;;8.30;99.90;;;;;;5115076;27;20650;-70
2023/01/12 10:18:16;;;;;;;0.70;0.37;;;8.10;99.90;;;;;;5129750;27;20741;-71
2023/01/12 10:20:44;;;;;;;1.00;0.57;;;8.40;99.60;;;;;;5120634;27;20650;-70
2023/01/12 10:23:17;;;;;;;0.30;0.20;;;8.60;99.90;;;;;;5118970;27;20619;-70
2023/01/12 10:25:47;;;;;;;0.30;0.30;;;8.20;99.90;;;;;;5131149;27;20691;-69
2023/01/12 10:28:21;;;;;;;1.27;0.30;;;8.50;99.90;;;;;;5115813;27;20637;-70
2023/01/12 10:30:48;;;;;;;9.30;1.50;;;8.40;99.90;;;;;;5110877;28;20667;-69
2023/01/12 10:33:17;;;;;;;0.30;0.30;;;8.60;99.90;;;;;;5117290;27;20631;-70
2023/01/12 10:35:56;;;;;;;0.40;0.23;;;8.50;99.90;;;;;;5118183;27;20781;-70
2023/01/12 10:38:28;;;;;;;0.30;0.20;;;8.50;99.90;;;;;;5111284;27;21306;-70
2023/01/12 10:41:23;;;;;;;0.40;0.30;;;8.60;99.00;;;;;;5109595;27;21241;-70
2023/01/12 10:44:11;;;;;;;5.97;0.80;;;8.40;99.90;;;;;;5082701;27;20649;-69
2023/01/12 10:46:38;;;;;;;0.30;0.20;;;8.10;99.90;;;;;;5128564;27;20749;-69
2023/01/12 10:49:24;;;;;;;0.77;0.77;;;8.80;99.90;;;;;;5108668;28;21297;-70
2023/01/12 10:51:54;;;;;;;1.40;0.30;;;8.70;99.00;;;;;;5125097;27;20661;-70
2023/01/12 10:54:26;;;;;;;0.40;0.40;;;9.20;99.90;;;;;;5130081;27;20623;-69
2023/01/12 10:56:58;;;;;;;0.40;0.20;;;8.20;99.90;;;;;;5130520;27;20654;-69
2023/01/12 10:59:30;;;;;;;0.30;0.20;;;8.60;99.90;;;;;;5128470;27;20718;-70
2023/01/12 11:02:14;;;;;;;0.40;0.23;;;8.90;99.90;;;;;;5129889;27;20654;-70
2023/01/12 11:04:43;;;;;;;0.47;0.40;;;8.80;99.90;;;;;;5123843;27;20634;-70
2023/01/12 11:07:12;;;;;;;0.30;0.20;;;8.60;99.90;;;;;;5120983;27;21244;-69
2023/01/12 11:09:42;;;;;;;5.80;0.70;;;8.80;99.90;;;;;;5116030;27;20746;-70
2023/01/12 11:12:22;;;;;;;0.67;0.27;;;8.90;99.90;;;;;;5121479;27;20217;-68
2023/01/12 11:15:01;;;;;;;0.50;0.50;;;8.80;98.90;;;;;;5110048;28;20622;-70
2023/01/12 11:17:51;;;;;;;0.80;0.40;;;8.80;99.90;;;;;;5118456;27;20661;-69
2023/01/12 11:20:23;;;;;;;0.30;0.20;;;8.90;98.40;;;;;;5128947;27;20634;-70
2023/01/12 11:22:53;;;;;;;0.30;0.20;;;9.10;99.90;;;;;;5128674;27;20975;-69
2023/01/12 11:25:24;;;;;;;0.40;0.40;;;8.90;98.40;;;;;;5109283;28;20627;-69
2023/01/12 11:27:55;;;;;;;0.30;0.20;;;8.80;98.00;;;;;;5121752;27;20631;-70
2023/01/12 11:30:28;;;;;;;0.30;0.20;;;8.80;98.30;;;;;;5128853;27;20656;-70
2023/01/12 11:33:03;;;;;;;0.73;0.33;;;8.70;99.90;;;;;;5128914;27;20626;-70
2023/01/12 11:35:34;;;;;;;0.60;0.57;;;8.80;98.30;;;;;;5128865;27;20645;-68
2023/01/12 11:38:09;;;;;;;3.37;0.73;;;8.90;98.40;;;;;;5108823;27;20640;-72
2023/01/12 11:40:38;;;;;;;0.40;0.30;;;8.90;99.90;;;;;;5109169;28;20635;-71
2023/01/12 11:46:07;;;;;;;0.30;0.20;;;8.90;98.60;;;;;;5109534;28;20744;-69
2023/01/12 11:48:43;;;;;;;0.30;0.10;;;8.80;98.80;;;;;;5117291;27;20620;-69
2023/01/12 11:51:11;;;;;;;0.30;0.20;;;8.80;98.40;;;;;;5109181;28;20666;-70
2023/01/12 11:53:39;;;;;;;0.30;0.20;;;8.80;98.70;;;;;;5121794;27;20618;-69
2023/01/12 11:56:34;;;;;;;0.30;0.20;;;9.10;99.90;;;;;;5125315;27;20654;-70
2023/01/12 11:59:09;;;;;;;0.40;0.20;;;8.80;98.90;;;;;;5126474;27;20627;-70
2023/01/12 12:01:43;;;;;;;0.30;0.20;;;8.80;98.80;;;;;;5118635;27;20758;-70
2023/01/12 12:04:28;;;;;;;0.40;0.30;;;8.80;98.70;;;;;;5108733;28;20634;-70
2023/01/12 12:07:14;;;;;;;0.30;0.20;;;8.80;99.00;;;;;;5112258;27;20740;-69
2023/01/12 12:10:21;;;;;;;0.57;0.57;;;8.80;99.10;;;;;;5107513;28;21181;-69
2023/01/12 12:13:06;;;;;;;0.30;0.20;;;8.90;99.90;;;;;;5113357;27;21191;-69
2023/01/12 12:15:39;;;;;;;0.40;0.30;;;8.80;99.10;;;;;;5128513;27;20691;-70
2023/01/12 12:18:17;;;;;;;0.40;0.37;;;8.80;99.10;;;;;;5127730;27;20623;-70
2023/01/12 12:20:52;;;;;;;1.10;0.37;;;8.70;98.80;;;;;;5129078;27;21247;-70
2023/01/12 12:23:30;;;;;;;0.30;0.20;;;8.70;99.10;;;;;;5121166;27;20626;-69
2023/01/12 12:26:08;;;;;;;0.40;0.20;;;8.60;99.90;;;;;;5128362;27;20674;-69
2023/01/12 12:29:08;;;;;;;0.30;0.20;;;8.80;99.90;;;;;;5125810;27;20623;-69
2023/01/12 12:32:01;;;;;;;0.30;0.20;;;8.80;99.10;;;;;;5110717;27;20674;-70
2023/01/12 12:34:50;;;;;;;0.30;0.20;;;8.80;99.00;;;;;;5118412;27;20627;-69
2023/01/12 12:37:23;;;;;;;0.67;0.37;;;8.80;99.00;;;;;;5127088;27;20666;-69
2023/01/12 12:39:56;;;;;;;0.40;0.20;;;9.10;99.90;;;;;;5113417;27;20612;-70
2023/01/12 12:45:38;;;;;;;1.70;0.60;;;8.60;99.90;;;;;;5128563;27;20635;-70
2023/01/12 12:48:11;;;;;;;0.43;0.40;;;8.70;99.90;;;;;;5110612;27;20655;-71
2023/01/12 12:50:44;;;;;;;0.30;0.30;;;9.00;99.90;;;;;;5109244;27;20758;-68
2023/01/12 12:53:20;;;;;;;0.40;0.37;;;9.00;98.90;;;;;;5123030;27;20625;-69
2023/01/12 12:55:49;;;;;;;0.30;0.20;;;9.00;99.90;;;;;;5128519;27;20784;-70
2023/01/12 12:58:37;;;;;;;0.40;0.27;;;9.00;98.70;;;;;;5112851;27;20618;-70
2023/01/12 13:01:44;;;;;;;0.30;0.20;;;9.00;99.90;;;;;;5109577;27;20662;-69
2023/01/12 13:04:13;;;;;;;0.30;0.20;;;9.10;98.90;;;;;;5112214;27;20633;-70
2023/01/12 13:06:44;;;;;;;0.40;0.33;;;9.20;99.90;;;;;;5115199;27;20658;-70
2023/01/12 13:09:35;;;;;;;0.40;0.40;;;9.10;99.00;;;;;;5126667;27;21192;-69
2023/01/12 13:12:34;;;;;;;0.50;0.47;;;9.10;99.90;;;;;;5120054;27;20677;-69
2023/01/12 13:15:19;;;;;;;0.30;0.20;;;9.20;99.90;;;;;;5024107;28;21329;-69
2023/01/12 13:17:48;;;;;;;0.30;0.20;;;9.00;99.70;;;;;;5107326;27;20642;-70
2023/01/12 13:20:54;;;;;;;0.60;0.23;;;9.20;99.00;;;;;;5106409;28;20620;-70
2023/01/12 13:23:45;;;;;;;0.30;0.20;;;9.20;99.00;;;;;;5121233;27;20714;-71
2023/01/12 13:26:37;;;;;;;0.30;0.30;;;9.20;99.30;;;;;;5127857;27;20639;-70
2023/01/12 13:29:37;;;;;;;0.30;0.20;;;9.20;99.30;;;;;;5117923;27;20619;-71
2023/01/12 13:32:40;;;;;;;0.30;0.30;;;9.20;99.90;;;;;;5109010;27;20675;-69
2023/01/12 13:35:37;;;;;;;0.40;0.20;;;9.20;99.90;;;;;;5127098;27;21002;-70
2023/01/12 13:38:13;;;;;;;0.40;0.30;;;9.30;99.90;;;;;;5111495;27;20760;-71
2023/01/12 13:40:41;;;;;;;0.40;0.40;;;9.30;99.50;;;;;;5107266;28;20649;-70
2023/01/12 13:43:14;;;;;;;0.73;0.73;;;9.30;99.60;;;;;;5123759;27;21429;-70
2023/01/12 13:45:49;;;;;;;0.50;0.50;;;9.30;99.40;;;;;;5127395;28;20643;-70
2023/01/12 13:48:18;;;;;;;0.30;0.30;;;9.20;99.60;;;;;;5126191;28;20625;-70
2023/01/12 13:50:48;;;;;;;0.30;0.20;;;9.40;99.90;;;;;;5127697;28;20674;-69
2023/01/12 13:53:22;;;;;;;4.33;0.30;;;9.20;99.50;;;;;;5126359;28;20623;-71
2023/01/12 13:55:58;;;;;;;2.93;0.30;;;9.00;99.40;;;;;;5107163;28;20643;-67
2023/01/12 13:58:26;;;;;;;0.30;0.20;;;9.00;99.90;;;;;;5120929;28;20627;-69